Brickton, Illinois
Current Conditions -  °F | °C
As of 6:15 AM on Tuesday 27 Jan 2015 (Local Time) from KVYS Reporting Station
Haze Haze  
Wind Chill: 22°   Ceiling: 1000
Heat Index: 29°   Visibility: 4mi
Dew Point: 28°   Wind: 7mph
Humidity: 94%   Direction: 10°N
Pressure: 30.04"   Gusts: NA
Location:  41.4349°N, 88.8687°W
Report Text: KVYS 271215Z AUTO 01006KT 4SM BR BKN010 OVC042 M02/M02 A3004 RMK AO2 T10171025
Loading
Personal Weather Stations






























Interactive Weather Map New forecast layout! Learn more

10-Day Weather Forecast

Advertisements
Track Severe Weather on mobile